Time;durP1;ratioP1;P1;durP2;ratioP2;P2;SDS_P1;SDS_P2;PMS_P1;PMS_P2;Temp;Humidity;BMP_temperature;BMP_pressure;BME280_temperature;BME280_humidity;BME280_pressure;Samples;Min_cycle;Max_cycle;Signal;HPM_P1;HPM_P2
2022/07/04 03:36:58;;;;;;;2.45;1.20;;;17.60;99.90;;;;;;6231032;22;20047;-86
2022/07/04 03:41:59;;;;;;;4.88;1.65;;;16.80;99.90;;;;;;6242042;23;20000;-86
2022/07/04 03:44:25;;;;;;;2.70;1.40;;;16.70;99.90;;;;;;6210033;23;20008;-88
2022/07/04 03:46:51;;;;;;;3.00;1.30;;;16.70;99.90;;;;;;6181712;23;20008;-87
2022/07/04 03:57:11;;;;;;;5.20;1.50;;;16.60;99.90;;;;;;6212693;23;20028;-86
2022/07/04 03:59:38;;;;;;;2.75;1.50;;;16.50;99.90;;;;;;6213445;23;20005;-85
2022/07/04 04:02:05;;;;;;;3.30;1.95;;;16.50;99.90;;;;;;6186831;23;20024;-85
2022/07/04 04:07:16;;;;;;;2.75;1.40;;;16.40;99.90;;;;;;6242921;23;20052;-86
2022/07/04 04:09:42;;;;;;;4.47;1.42;;;16.50;99.90;;;;;;6241879;23;19993;-85
2022/07/04 04:12:08;;;;;;;3.47;1.50;;;16.50;99.90;;;;;;6239510;23;19996;-86
2022/07/04 04:14:34;;;;;;;4.18;1.50;;;16.70;99.90;;;;;;6162832;23;20064;-86
2022/07/04 04:17:00;;;;;;;2.88;1.63;;;16.50;99.90;;;;;;6210668;23;19993;-85
2022/07/04 04:19:25;;;;;;;2.75;1.40;;;16.40;99.90;;;;;;6186704;23;20036;-83
2022/07/04 04:21:51;;;;;;;4.15;1.33;;;16.60;99.90;;;;;;6212656;23;19989;-85
2022/07/04 04:34:07;;;;;;;4.18;1.70;;;16.60;99.90;;;;;;6148347;23;20024;-83
2022/07/04 04:36:33;;;;;;;2.75;1.40;;;16.60;99.90;;;;;;6212857;23;19997;-83
2022/07/04 04:38:59;;;;;;;3.58;1.27;;;16.60;99.90;;;;;;6186907;23;20000;-83
2022/07/04 04:41:25;;;;;;;2.22;1.60;;;16.60;99.90;;;;;;6211379;23;19997;-84
2022/07/04 04:43:54;;;;;;;3.83;1.77;;;16.60;99.90;;;;;;6235596;23;19992;-84
2022/07/04 04:46:20;;;;;;;2.78;1.40;;;16.60;99.90;;;;;;6216235;23;19997;-85
2022/07/04 04:48:47;;;;;;;2.47;1.65;;;16.60;99.90;;;;;;6216751;23;19993;-85
2022/07/04 04:51:13;;;;;;;3.15;1.65;;;16.60;99.90;;;;;;6215593;23;20056;-82
2022/07/04 04:53:39;;;;;;;3.28;1.75;;;17.40;99.90;;;;;;6215339;23;20000;-85
2022/07/04 04:56:05;;;;;;;4.35;1.58;;;16.70;99.90;;;;;;6236980;23;20036;-83
2022/07/04 04:58:30;;;;;;;3.40;1.70;;;16.70;99.90;;;;;;6235513;23;20008;-85
2022/07/04 05:00:56;;;;;;;3.22;1.75;;;16.80;99.90;;;;;;6234655;23;20005;-83
2022/07/04 05:03:22;;;;;;;2.63;1.60;;;16.80;99.90;;;;;;6208962;23;20020;-83
2022/07/04 05:05:48;;;;;;;3.13;1.65;;;16.80;99.90;;;;;;6205710;23;20000;-82
2022/07/04 05:08:13;;;;;;;3.92;1.70;;;16.90;99.90;;;;;;6204663;23;20015;-83
2022/07/04 05:10:40;;;;;;;2.67;1.60;;;16.90;99.90;;;;;;6232236;23;20015;-82
2022/07/04 05:13:06;;;;;;;4.18;1.98;;;17.80;99.90;;;;;;6211409;23;20020;-82
2022/07/04 05:15:32;;;;;;;3.63;1.73;;;17.10;99.90;;;;;;6211701;23;20011;-82
2022/07/04 05:18:00;;;;;;;5.22;1.92;;;17.10;99.90;;;;;;6233720;23;19996;-83
2022/07/04 05:20:26;;;;;;;3.97;1.90;;;17.30;99.90;;;;;;6235070;23;20013;-83
2022/07/04 05:22:52;;;;;;;3.17;2.00;;;17.30;99.90;;;;;;6237115;23;19999;-84
2022/07/04 05:25:18;;;;;;;4.85;1.92;;;17.40;99.90;;;;;;6239427;23;20016;-83
2022/07/04 05:27:44;;;;;;;3.92;1.83;;;;;;;;;;6237548;23;20012;-82
2022/07/04 05:30:11;;;;;;;3.63;1.70;;;20.00;99.90;;;;;;6214656;23;19993;-82
2022/07/04 05:32:40;;;;;;;8.32;2.10;;;18.60;99.90;;;;;;6178612;23;20035;-84
2022/07/04 05:35:07;;;;;;;2.83;1.95;;;21.10;99.90;;;;;;6217438;23;20012;-85
2022/07/04 05:37:33;;;;;;;5.10;1.92;;;22.20;98.70;;;;;;6216858;23;20010;-82
2022/07/04 05:39:59;;;;;;;3.22;1.60;;;24.90;97.70;;;;;;6216354;23;20005;-83
2022/07/04 05:42:25;;;;;;;6.15;2.08;;;23.00;97.00;;;;;;6214556;23;20019;-84
2022/07/04 05:44:51;;;;;;;5.15;1.77;;;24.20;94.00;;;;;;6190407;23;20009;-84
2022/07/04 05:47:17;;;;;;;3.10;1.30;;;24.40;93.40;;;;;;6217560;23;20063;-84
2022/07/04 05:49:43;;;;;;;4.55;1.42;;;24.50;91.90;;;;;;6215476;23;20233;-84
2022/07/04 05:52:08;;;;;;;3.63;1.80;;;24.60;92.50;;;;;;6215913;23;20015;-83
2022/07/04 05:54:34;;;;;;;1.73;1.10;;;24.70;91.40;;;;;;6217849;23;20001;-84
2022/07/04 05:57:00;;;;;;;2.97;1.30;;;25.70;90.40;;;;;;6214191;23;20005;-83
2022/07/04 05:59:26;;;;;;;5.45;1.55;;;25.60;89.80;;;;;;6219985;23;20001;-83
2022/07/04 06:01:51;;;;;;;3.20;1.38;;;25.10;90.00;;;;;;6228867;23;20012;-84
2022/07/04 06:04:17;;;;;;;3.30;1.45;;;25.10;89.30;;;;;;6234322;23;20078;-83
2022/07/04 06:06:43;;;;;;;5.45;1.50;;;25.80;85.70;;;;;;6230883;23;20013;-85
2022/07/04 06:09:09;;;;;;;4.22;1.50;;;25.40;85.30;;;;;;6218528;23;19997;-83
2022/07/04 06:11:34;;;;;;;3.42;1.45;;;25.10;85.50;;;;;;6215829;23;19997;-85
2022/07/04 06:14:01;;;;;;;3.03;1.77;;;24.80;86.40;;;;;;6212669;23;20015;-82
2022/07/04 06:16:26;;;;;;;3.17;1.50;;;25.20;85.00;;;;;;6216877;23;20015;-83
2022/07/04 06:18:52;;;;;;;3.20;1.42;;;25.10;84.90;;;;;;6214890;23;20028;-84
2022/07/04 06:21:18;;;;;;;2.08;1.30;;;25.30;84.20;;;;;;6214236;23;20085;-84
2022/07/04 06:23:44;;;;;;;4.57;1.45;;;25.30;84.20;;;;;;6215918;23;20350;-85
2022/07/04 06:26:10;;;;;;;3.67;1.60;;;;;;;;;;6216741;23;20008;-85
2022/07/04 06:28:35;;;;;;;2.90;1.33;;;25.00;84.40;;;;;;6217268;23;19996;-84
2022/07/04 06:31:01;;;;;;;3.53;1.40;;;24.90;84.90;;;;;;6219533;23;20039;-86
2022/07/04 06:33:27;;;;;;;3.63;1.35;;;24.70;85.50;;;;;;6220421;23;20028;-84
2022/07/04 06:35:56;;;;;;;3.65;1.50;;;24.40;86.20;;;;;;6217858;23;20055;-86
2022/07/04 06:38:25;;;;;;;6.13;1.83;;;23.90;87.20;;;;;;6220894;23;20000;-86
2022/07/04 06:40:57;;;;;;;2.88;1.52;;;24.10;88.00;;;;;;6216409;23;20005;-85
2022/07/04 06:43:24;;;;;;;4.90;1.55;;;23.80;88.30;;;;;;6221485;23;20052;-85
2022/07/04 06:45:50;;;;;;;5.13;1.70;;;23.60;88.30;;;;;;6194167;23;20009;-85
2022/07/04 06:48:16;;;;;;;4.68;1.70;;;23.20;89.70;;;;;;6218662;23;20039;-85
2022/07/04 06:50:42;;;;;;;5.32;1.75;;;23.10;90.40;;;;;;6193786;23;20015;-85
2022/07/04 06:53:09;;;;;;;3.13;1.42;;;23.30;90.20;;;;;;6197250;23;20095;-86
2022/07/04 06:55:37;;;;;;;2.65;1.33;;;20.90;89.20;;;;;;6221632;23;20020;-85
2022/07/04 06:58:03;;;;;;;3.20;1.38;;;23.40;89.20;;;;;;6221127;23;20005;-84
2022/07/04 07:00:33;;;;;;;3.92;1.77;;;23.30;89.90;;;;;;6229359;23;20015;-82
2022/07/04 07:03:00;;;;;;;3.88;1.60;;;23.20;89.50;;;;;;6245396;23;19993;-83
2022/07/04 07:05:27;;;;;;;3.58;1.40;;;23.30;88.70;;;;;;6218047;23;20019;-85
2022/07/04 07:07:54;;;;;;;4.10;1.42;;;22.80;89.30;;;;;;6243699;23;20016;-84
2022/07/04 07:10:20;;;;;;;3.97;1.58;;;22.70;90.20;;;;;;6243587;23;20012;-84
2022/07/04 07:12:46;;;;;;;4.75;1.70;;;22.50;90.50;;;;;;6243412;23;20001;-84
2022/07/04 07:15:13;;;;;;;4.95;1.60;;;;;;;;;;6242900;23;19999;-84
2022/07/04 07:17:42;;;;;;;4.78;1.67;;;22.30;90.40;;;;;;6243036;23;20459;-83
2022/07/04 07:20:08;;;;;;;3.27;1.30;;;22.20;90.40;;;;;;6242118;23;20023;-84
2022/07/04 07:22:34;;;;;;;4.38;1.50;;;22.20;90.90;;;;;;6243789;23;20016;-83
2022/07/04 07:25:00;;;;;;;4.05;1.58;;;20.00;90.50;;;;;;6243733;23;19988;-84
2022/07/04 07:27:25;;;;;;;3.72;1.70;;;22.10;90.50;;;;;;6244196;23;20031;-84
2022/07/04 07:29:51;;;;;;;5.18;1.85;;;23.20;90.90;;;;;;6217673;23;20005;-82
2022/07/04 07:32:19;;;;;;;5.18;1.67;;;21.00;89.20;;;;;;6201989;23;20238;-83
2022/07/04 07:34:45;;;;;;;4.53;1.92;;;22.40;88.80;;;;;;6196515;23;20012;-80
2022/07/04 07:37:12;;;;;;;3.47;1.42;;;22.00;88.60;;;;;;6201237;23;20005;-82
2022/07/04 07:39:39;;;;;;;2.50;1.20;;;22.30;88.30;;;;;;6200959;23;20001;-80
2022/07/04 07:42:10;;;;;;;3.47;1.20;;;22.20;89.00;;;;;;6176761;23;20068;-81
2022/07/04 07:44:56;;;;;;;7.00;1.83;;;21.30;88.90;;;;;;6231527;23;19997;-82
2022/07/04 07:47:22;;;;;;;4.05;1.80;;;22.40;89.00;;;;;;6233476;23;20011;-81
2022/07/04 07:49:49;;;;;;;7.35;1.63;;;22.30;88.50;;;;;;6210007;23;20012;-81
2022/07/04 07:52:17;;;;;;;4.53;1.20;;;22.00;88.80;;;;;;6205830;23;20064;-81
2022/07/04 07:54:44;;;;;;;5.07;1.73;;;22.10;88.50;;;;;;6224259;23;20008;-82
2022/07/04 07:57:13;;;;;;;6.07;1.40;;;22.00;88.90;;;;;;6203481;23;20005;-80
2022/07/04 07:59:40;;;;;;;4.38;1.38;;;22.30;88.30;;;;;;6198765;23;20020;-81
2022/07/04 08:02:07;;;;;;;3.50;1.10;;;22.40;87.70;;;;;;6200095;23;20007;-81
2022/07/04 08:04:40;;;;;;;2.08;0.90;;;22.60;88.00;;;;;;6200584;23;20008;-81
2022/07/04 08:07:12;;;;;;;5.40;1.30;;;22.90;81.80;;;;;;6204065;23;20057;-80
2022/07/04 08:09:40;;;;;;;1.70;0.90;;;23.20;83.00;;;;;;6233456;23;20020;-80
2022/07/04 08:12:08;;;;;;;2.60;1.17;;;23.40;81.90;;;;;;6205379;23;20008;-81
2022/07/04 08:14:35;;;;;;;3.38;1.10;;;23.40;82.00;;;;;;6228593;23;20026;-81
2022/07/04 08:17:05;;;;;;;2.45;1.00;;;23.40;81.20;;;;;;6202779;23;20066;-81
2022/07/04 08:19:32;;;;;;;6.78;3.38;;;23.50;81.00;;;;;;6176083;23;20051;-80
2022/07/04 08:21:59;;;;;;;3.10;1.60;;;23.10;80.70;;;;;;6200337;23;20060;-80
2022/07/04 08:24:25;;;;;;;3.35;1.30;;;23.50;81.30;;;;;;6198517;23;20051;-80
2022/07/04 08:26:51;;;;;;;4.88;1.30;;;23.40;82.20;;;;;;6197670;23;20009;-80
2022/07/04 08:29:18;;;;;;;3.55;1.33;;;23.30;82.70;;;;;;6199056;23;20062;-80
2022/07/04 08:31:44;;;;;;;4.32;1.60;;;23.20;82.80;;;;;;6227127;23;20092;-81
2022/07/04 08:34:13;;;;;;;5.32;1.30;;;22.30;82.60;;;;;;6228786;23;20021;-80
2022/07/04 08:36:42;;;;;;;3.60;1.33;;;22.30;82.00;;;;;;6227401;23;20012;-81
2022/07/04 08:39:09;;;;;;;4.53;1.40;;;23.40;82.10;;;;;;6200989;23;20017;-80
2022/07/04 08:41:41;;;;;;;4.20;1.55;;;23.50;81.80;;;;;;6227600;23;20011;-82
2022/07/04 08:44:11;;;;;;;3.42;1.30;;;23.70;81.70;;;;;;6226816;23;20000;-80
2022/07/04 08:46:42;;;;;;;5.53;1.58;;;23.80;80.90;;;;;;6227424;23;20007;-80
2022/07/04 08:49:17;;;;;;;3.85;1.20;;;23.90;80.40;;;;;;6225301;23;20005;-80
2022/07/04 08:51:51;;;;;;;3.63;1.42;;;23.40;80.30;;;;;;6226816;23;20004;-81
2022/07/04 09:00:06;;;;;;;5.95;1.33;;;23.90;80.70;;;;;;6225521;23;20007;-81
2022/07/04 09:02:51;;;;;;;6.90;1.40;;;23.90;79.80;;;;;;6200044;23;20000;-81
2022/07/04 09:05:28;;;;;;;3.85;1.40;;;24.00;80.70;;;;;;6200332;23;20008;-81
2022/07/04 09:08:14;;;;;;;;;;;;;;;;;;;;;
2022/07/04 09:11:04;;;;;;;4.03;1.50;;;24.30;79.20;;;;;;6225375;23;20065;-79
2022/07/04 09:13:47;;;;;;;4.07;1.98;;;24.30;79.00;;;;;;6227961;23;20032;-81
2022/07/04 09:16:49;;;;;;;;;;;;;;;;;;;;;
2022/07/04 09:19:32;;;;;;;6.47;2.05;;;24.60;78.60;;;;;;6221898;23;20028;-80
2022/07/04 09:22:55;;;;;;;;;;;;;;;;;;;;;
2022/07/04 09:29:55;;;;;;;3.42;1.20;;;24.80;77.30;;;;;;6068741;23;20319;-79
2022/07/04 09:33:17;;;;;;;4.03;1.25;;;24.70;76.10;;;;;;5987083;23;20024;-79
2022/07/04 09:36:47;;;;;;;4.43;1.40;;;24.80;75.60;;;;;;6041560;23;20050;-80
2022/07/04 09:40:06;;;;;;;7.30;3.58;;;24.80;75.60;;;;;;5930780;24;20005;-80
2022/07/04 09:43:20;;;;;;;;;;;;;;;;;;;;;
2022/07/04 09:46:34;;;;;;;;;;;;;;;;;;;;;
2022/07/04 09:49:27;;;;;;;3.95;1.10;;;25.30;73.80;;;;;;5953376;24;20045;-81
2022/07/04 09:52:41;;;;;;;;;;;;;;;;;;;;;
2022/07/04 09:55:23;;;;;;;3.50;1.30;;;25.40;72.20;;;;;;5984063;23;20147;-80
2022/07/04 09:58:00;;;;;;;5.40;1.23;;;25.30;70.90;;;;;;6075964;23;20010;-79
2022/07/04 10:00:56;;;;;;;3.80;1.10;;;25.30;70.30;;;;;;6073899;23;20070;-80
2022/07/04 10:04:01;;;;;;;;;;;;;;;;;;;;;
2022/07/04 10:06:54;;;;;;;6.70;1.42;;;25.50;70.10;;;;;;6225332;23;20032;-80
2022/07/04 10:09:41;;;;;;;;;;;;;;;;;;;;;
2022/07/04 10:12:10;;;;;;;3.80;1.23;;;25.50;69.20;;;;;;6222673;23;20020;-80
2022/07/04 10:15:17;;;;;;;5.17;1.30;;;25.60;68.80;;;;;;6206121;23;20067;-81
2022/07/04 10:18:16;;;;;;;5.63;1.65;;;25.70;69.40;;;;;;6210463;23;20019;-81
2022/07/04 10:21:26;;;;;;;5.57;1.65;;;25.90;68.70;;;;;;6240681;23;20055;-79
2022/07/04 10:23:51;;;;;;;6.30;1.60;;;25.80;69.00;;;;;;6213198;23;20016;-80
2022/07/04 10:26:22;;;;;;;4.20;1.30;;;25.60;69.60;;;;;;6212955;23;20008;-81
2022/07/04 10:28:52;;;;;;;8.55;1.52;;;25.60;67.90;;;;;;6189889;23;20001;-81
2022/07/04 10:31:37;;;;;;;4.82;1.73;;;25.90;68.40;;;;;;6187954;23;19996;-82
2022/07/04 10:34:04;;;;;;;6.15;1.70;;;26.20;68.20;;;;;;6238757;23;20012;-82
2022/07/04 10:36:31;;;;;;;6.25;1.77;;;26.20;68.40;;;;;;6218304;23;20012;-82
2022/07/04 10:39:02;;;;;;;4.13;1.40;;;26.40;68.30;;;;;;6217608;23;20015;-81
2022/07/04 10:41:29;;;;;;;3.58;1.60;;;26.50;67.50;;;;;;6242366;23;20012;-80
2022/07/04 10:44:00;;;;;;;4.20;1.23;;;26.50;66.80;;;;;;6244403;23;20000;-81
2022/07/04 10:46:43;;;;;;;6.60;1.75;;;26.40;66.70;;;;;;6232630;23;20064;-81
2022/07/04 10:49:14;;;;;;;5.47;1.58;;;26.60;66.90;;;;;;6194843;23;20065;-81
2022/07/04 10:51:51;;;;;;;3.53;1.25;;;26.50;66.50;;;;;;6210078;23;19996;-82
2022/07/04 10:54:32;;;;;;;3.38;1.05;;;26.60;66.70;;;;;;6194720;23;20008;-81
2022/07/04 10:57:11;;;;;;;3.95;1.48;;;26.70;66.30;;;;;;6199755;23;20013;-81
2022/07/04 10:59:38;;;;;;;6.68;1.60;;;26.80;65.30;;;;;;6203707;23;20076;-82
2022/07/04 11:02:08;;;;;;;6.70;1.60;;;26.80;64.90;;;;;;6206362;23;20012;-81
2022/07/04 11:04:54;;;;;;;3.75;1.27;;;26.90;64.00;;;;;;6202013;23;20005;-81
2022/07/04 11:07:43;;;;;;;6.43;1.88;;;27.00;63.50;;;;;;6201598;23;20031;-81
2022/07/04 11:10:12;;;;;;;5.45;2.20;;;26.90;63.30;;;;;;6225462;23;20005;-81
2022/07/04 11:12:56;;;;;;;5.90;1.83;;;27.00;64.10;;;;;;6231540;23;20431;-81
2022/07/04 11:15:31;;;;;;;5.78;1.80;;;27.10;63.10;;;;;;6226553;23;20323;-81
2022/07/04 11:18:22;;;;;;;5.88;1.45;;;27.10;62.90;;;;;;6199811;23;20001;-81
2022/07/04 11:20:51;;;;;;;6.78;1.48;;;27.00;62.40;;;;;;6178414;23;20064;-82
2022/07/04 11:23:24;;;;;;;;;;;26.90;62.90;;;;;;6096629;23;2234226;-81
2022/07/04 11:25:56;;;;;;;4.88;1.40;;;27.10;62.50;;;;;;6172265;23;19908;-81
2022/07/04 11:28:35;;;;;;;7.15;1.50;;;27.00;62.30;;;;;;6194185;23;20012;-81
2022/07/04 11:31:02;;;;;;;4.05;1.38;;;27.10;61.80;;;;;;6172121;23;20005;-81
2022/07/04 11:33:36;;;;;;;3.75;1.70;;;26.90;61.80;;;;;;6210124;23;20000;-80
2022/07/04 11:36:07;;;;;;;4.03;1.55;;;27.00;61.80;;;;;;6229076;23;20012;-82
2022/07/04 11:39:11;;;;;;;8.23;2.15;;;27.20;61.50;;;;;;6177373;23;20009;-81
2022/07/04 11:47:19;;;;;;;4.88;1.58;;;27.50;61.50;;;;;;6229254;23;20015;-81
2022/07/04 11:49:57;;;;;;;3.40;1.23;;;27.50;61.30;;;;;;6228872;23;20009;-83
2022/07/04 11:52:45;;;;;;;6.68;1.80;;;27.40;61.20;;;;;;6229130;23;20031;-82
2022/07/04 11:55:14;;;;;;;7.40;1.60;;;27.50;61.60;;;;;;6202422;23;20001;-81
2022/07/04 11:57:52;;;;;;;7.35;1.52;;;27.00;61.00;;;;;;6202605;23;20008;-82
2022/07/04 12:00:20;;;;;;;3.50;1.52;;;27.40;60.80;;;;;;6226505;23;20001;-82
2022/07/04 12:02:47;;;;;;;3.58;1.48;;;27.70;61.00;;;;;;6226785;23;20076;-82
2022/07/04 12:05:16;;;;;;;6.15;1.20;;;27.80;60.90;;;;;;6202139;23;20028;-81
2022/07/04 12:07:47;;;;;;;6.07;1.60;;;27.40;60.80;;;;;;6203700;23;20039;-82
2022/07/04 12:10:22;;;;;;;4.35;1.48;;;27.40;62.50;;;;;;6206280;23;20080;-82
2022/07/04 12:18:06;;;;;;;5.85;1.52;;;27.40;61.10;;;;;;6242640;23;20061;-82
2022/07/04 12:20:32;;;;;;;4.50;1.60;;;27.40;61.40;;;;;;6242545;23;20009;-82
2022/07/04 12:23:00;;;;;;;5.95;1.65;;;27.20;61.90;;;;;;6231992;23;19989;-79
2022/07/04 12:25:51;;;;;;;5.03;1.55;;;27.40;61.60;;;;;;6214492;23;19987;-82
2022/07/04 12:28:19;;;;;;;4.82;1.48;;;27.60;60.70;;;;;;6206014;23;20432;-83
2022/07/04 12:31:01;;;;;;;3.25;1.33;;;27.80;60.40;;;;;;6178724;23;20005;-82
2022/07/04 12:33:29;;;;;;;4.15;1.60;;;28.00;60.10;;;;;;6204204;23;20009;-85
2022/07/04 12:36:06;;;;;;;5.22;1.42;;;28.00;60.80;;;;;;6174260;23;20001;-84
2022/07/04 12:38:56;;;;;;;4.53;1.33;;;28.20;60.10;;;;;;6182405;23;20053;-82
2022/07/04 12:41:41;;;;;;;4.30;1.42;;;28.20;60.10;;;;;;6172896;23;20036;-83
2022/07/04 12:44:06;;;;;;;1.92;1.10;;;28.10;60.10;;;;;;6175138;23;20048;-84
2022/07/04 12:46:43;;;;;;;4.20;1.40;;;28.20;60.00;;;;;;6210596;23;20076;-83
2022/07/04 12:49:17;;;;;;;2.75;1.00;;;28.20;59.30;;;;;;6208240;23;20012;-81
2022/07/04 12:52:18;;;;;;;2.72;1.08;;;28.60;59.20;;;;;;6190480;23;19993;-82
2022/07/04 12:55:15;;;;;;;3.05;1.90;;;27.60;59.10;;;;;;6185223;23;20032;-82
2022/07/04 12:57:43;;;;;;;4.97;2.80;;;27.70;59.10;;;;;;6188323;23;20013;-82
2022/07/04 13:00:10;;;;;;;2.92;1.30;;;27.90;59.60;;;;;;6213148;23;20011;-82
2022/07/04 13:02:35;;;;;;;3.08;1.13;;;27.80;59.90;;;;;;6213395;23;19995;-81
2022/07/04 13:05:01;;;;;;;4.70;1.10;;;27.90;60.00;;;;;;6213974;23;20005;-83
2022/07/04 13:10:18;;;;;;;3.17;1.13;;;28.00;59.40;;;;;;6153467;23;20020;-82
2022/07/04 13:12:44;;;;;;;3.58;1.20;;;27.90;59.60;;;;;;6206386;23;20016;-83
2022/07/04 13:15:25;;;;;;;1.83;1.10;;;28.00;59.60;;;;;;6244005;23;19993;-83
2022/07/04 13:18:09;;;;;;;6.50;1.67;;;27.90;59.60;;;;;;6238746;23;20445;-83
2022/07/04 13:20:34;;;;;;;2.75;1.30;;;28.10;59.40;;;;;;6209239;23;20016;-84
2022/07/04 13:23:00;;;;;;;3.67;1.20;;;28.30;59.00;;;;;;6223468;23;20027;-84
2022/07/04 13:25:26;;;;;;;3.97;1.00;;;28.50;58.00;;;;;;6197026;23;20096;-84
2022/07/04 13:27:52;;;;;;;1.95;1.00;;;28.50;57.50;;;;;;6221685;23;20039;-84
2022/07/04 13:30:18;;;;;;;5.43;1.27;;;28.40;57.10;;;;;;6216641;23;20009;-83
2022/07/04 13:32:43;;;;;;;3.60;1.10;;;28.30;57.80;;;;;;6218531;23;20015;-85
2022/07/04 13:35:09;;;;;;;2.80;0.82;;;28.40;57.50;;;;;;6228717;23;20448;-84
2022/07/04 13:37:35;;;;;;;4.50;1.08;;;28.40;56.50;;;;;;6225269;23;20008;-84
2022/07/04 13:40:01;;;;;;;2.33;0.80;;;28.40;57.20;;;;;;6221073;23;20000;-85
2022/07/04 13:45:13;;;;;;;2.35;0.90;;;28.50;57.10;;;;;;6227213;23;20336;-85
2022/07/04 13:47:38;;;;;;;4.85;0.85;;;28.40;56.10;;;;;;6222529;23;20005;-85
2022/07/04 13:50:05;;;;;;;2.80;1.02;;;28.30;55.10;;;;;;6219267;23;20023;-85
2022/07/04 13:52:30;;;;;;;3.88;0.70;;;28.40;55.90;;;;;;6208899;23;20012;-82
2022/07/04 13:54:59;;;;;;;1.77;0.75;;;28.30;53.70;;;;;;6234135;23;20016;-84
2022/07/04 13:57:30;;;;;;;1.43;0.80;;;28.30;54.80;;;;;;6234279;23;20008;-82
2022/07/04 13:59:56;;;;;;;1.95;0.80;;;28.30;53.50;;;;;;6212748;23;20001;-83
2022/07/04 14:02:22;;;;;;;2.70;0.70;;;28.30;53.70;;;;;;6237747;23;20001;-84
2022/07/04 14:04:48;;;;;;;2.88;1.08;;;28.30;53.80;;;;;;6237893;23;20024;-82
2022/07/04 14:07:13;;;;;;;1.15;0.75;;;28.30;54.10;;;;;;6240418;23;20318;-84
2022/07/04 14:09:39;;;;;;;3.85;1.20;;;28.20;54.40;;;;;;6234239;23;20036;-85
2022/07/04 14:12:05;;;;;;;1.38;0.85;;;28.20;54.30;;;;;;6234731;23;20017;-84
2022/07/04 14:14:31;;;;;;;2.97;0.90;;;28.40;53.80;;;;;;6202858;23;20011;-84
2022/07/04 14:16:57;;;;;;;1.10;0.70;;;28.40;54.30;;;;;;6234133;23;19996;-83
2022/07/04 14:19:23;;;;;;;3.28;0.90;;;28.40;53.60;;;;;;6235843;23;20005;-82
2022/07/04 14:21:48;;;;;;;3.60;1.23;;;28.70;53.90;;;;;;6212731;23;20000;-83
2022/07/04 14:24:14;;;;;;;1.90;0.90;;;28.30;53.00;;;;;;6206086;23;20012;-85
2022/07/04 14:26:42;;;;;;;2.88;1.05;;;28.60;53.00;;;;;;6228349;23;20004;-87
2022/07/04 14:29:08;;;;;;;3.65;1.20;;;28.30;52.60;;;;;;6199498;23;20009;-87
2022/07/04 14:31:33;;;;;;;2.75;1.27;;;28.30;52.90;;;;;;6228341;23;20031;-85
2022/07/04 14:33:59;;;;;;;2.85;1.00;;;28.30;53.10;;;;;;6231380;23;20001;-87
2022/07/04 14:36:25;;;;;;;2.22;0.93;;;28.40;54.10;;;;;;6234779;23;20017;-86
2022/07/04 14:38:51;;;;;;;3.08;0.90;;;28.50;54.10;;;;;;6232745;23;20072;-88
2022/07/04 14:41:16;;;;;;;4.18;1.15;;;28.50;54.60;;;;;;6202113;23;20004;-87
2022/07/04 14:43:43;;;;;;;3.85;1.10;;;28.70;54.50;;;;;;6232761;23;20052;-87
2022/07/04 14:46:16;;;;;;;3.47;1.00;;;28.70;53.90;;;;;;6243302;23;19997;-86
2022/07/04 14:48:41;;;;;;;4.20;1.10;;;28.50;54.70;;;;;;6243975;23;19989;-87
2022/07/04 14:51:07;;;;;;;3.53;0.95;;;28.50;54.70;;;;;;6236618;23;20412;-86
2022/07/04 14:53:33;;;;;;;4.95;1.10;;;28.40;55.60;;;;;;6231105;23;20107;-86
2022/07/04 14:55:58;;;;;;;4.53;1.30;;;28.30;55.20;;;;;;6203740;23;20005;-86
2022/07/04 14:58:24;;;;;;;8.23;1.42;;;28.20;55.80;;;;;;6228686;23;20017;-86
2022/07/04 15:00:50;;;;;;;10.95;4.45;;;28.20;56.00;;;;;;6206873;23;20005;-85
2022/07/04 15:03:38;;;;;;;6.75;1.48;;;28.30;55.40;;;;;;6218069;23;20048;-84
2022/07/04 15:06:27;;;;;;;2.17;0.85;;;28.20;55.40;;;;;;6243462;23;19993;-83
2022/07/04 15:08:57;;;;;;;4.75;1.05;;;28.20;54.40;;;;;;6243063;23;20001;-84
2022/07/04 15:14:04;;;;;;;4.30;1.17;;;28.20;55.10;;;;;;6215802;23;20012;-82
2022/07/04 15:16:31;;;;;;;4.18;2.30;;;28.10;55.20;;;;;;6201768;23;20024;-82
2022/07/04 15:19:01;;;;;;;4.20;0.98;;;28.20;55.70;;;;;;6222302;23;20005;-82
2022/07/04 15:24:18;;;;;;;5.22;1.20;;;28.40;54.30;;;;;;6229217;23;20011;-82
2022/07/04 15:26:51;;;;;;;6.57;4.38;;;28.30;54.40;;;;;;6202422;23;20017;-82
2022/07/04 15:29:22;;;;;;;4.93;1.60;;;27.80;54.50;;;;;;6221734;23;20093;-84
2022/07/04 15:31:50;;;;;;;7.47;2.78;;;28.10;54.70;;;;;;6194612;23;20012;-83
2022/07/04 15:34:21;;;;;;;7.82;1.50;;;28.10;54.40;;;;;;6204891;23;20004;-82
2022/07/04 15:36:49;;;;;;;4.93;2.05;;;28.00;54.10;;;;;;6175586;23;20023;-84
2022/07/04 15:39:19;;;;;;;2.47;1.00;;;28.00;54.80;;;;;;6202149;23;20087;-84
2022/07/04 15:41:47;;;;;;;3.97;2.58;;;28.00;54.40;;;;;;6172354;23;20062;-84
2022/07/04 15:44:13;;;;;;;3.42;1.50;;;28.10;53.90;;;;;;6217482;23;20008;-85
2022/07/04 15:55:47;;;;;;;;;;;28.40;53.80;;;;;;6240200;23;20021;-85
2022/07/04 15:58:13;;;;;;;5.45;1.60;;;28.40;53.50;;;;;;6231216;23;20313;-85
2022/07/04 16:00:40;;;;;;;3.50;1.10;;;28.40;53.70;;;;;;6201163;23;20068;-86
2022/07/04 16:03:08;;;;;;;9.27;3.42;;;28.50;53.30;;;;;;6187356;23;20009;-84
2022/07/04 16:05:33;;;;;;;2.67;1.00;;;28.50;53.10;;;;;;6194721;23;20005;-84
2022/07/04 16:07:59;;;;;;;8.52;1.90;;;28.60;53.50;;;;;;6196766;23;20016;-86
2022/07/04 16:10:25;;;;;;;1.60;0.80;;;28.60;53.50;;;;;;6167652;23;20005;-84
2022/07/04 16:12:51;;;;;;;3.17;0.85;;;28.40;52.90;;;;;;6143399;23;20021;-87
2022/07/04 16:15:19;;;;;;;4.07;1.30;;;28.60;53.90;;;;;;6192055;23;20005;-87
2022/07/04 16:17:45;;;;;;;3.33;1.08;;;28.50;53.90;;;;;;6190104;23;20043;-87
2022/07/04 16:20:10;;;;;;;5.00;1.60;;;28.50;54.80;;;;;;6196638;23;20008;-85
2022/07/04 16:22:36;;;;;;;4.82;1.50;;;28.50;54.50;;;;;;6209010;23;20028;-85
2022/07/04 16:25:03;;;;;;;5.13;1.05;;;28.50;54.50;;;;;;6185180;23;20020;-83
2022/07/04 16:27:30;;;;;;;3.90;1.70;;;28.40;54.00;;;;;;6194914;23;20055;-82
2022/07/04 16:29:55;;;;;;;4.47;1.15;;;28.50;54.20;;;;;;6221115;23;20004;-82
2022/07/04 16:32:21;;;;;;;4.03;1.50;;;28.30;54.10;;;;;;6193808;23;20005;-82
2022/07/04 16:34:47;;;;;;;5.18;1.00;;;28.40;54.70;;;;;;6208879;23;20005;-82
2022/07/04 16:37:13;;;;;;;3.05;1.23;;;28.60;53.90;;;;;;6167496;23;20036;-82
2022/07/04 16:39:38;;;;;;;4.40;1.40;;;28.70;53.00;;;;;;6163907;23;20005;-83
2022/07/04 16:42:04;;;;;;;2.63;1.00;;;28.60;53.00;;;;;;6165347;23;20290;-82
2022/07/04 16:44:30;;;;;;;2.83;1.20;;;28.60;52.90;;;;;;6165686;23;20342;-82
2022/07/04 16:46:56;;;;;;;4.15;1.30;;;28.50;53.20;;;;;;6166515;23;20008;-82
2022/07/04 16:49:21;;;;;;;1.88;1.00;;;28.60;53.90;;;;;;6166076;23;20225;-82
2022/07/04 16:51:47;;;;;;;4.72;1.13;;;28.60;53.70;;;;;;6165311;23;20511;-81
2022/07/04 16:54:13;;;;;;;1.27;0.82;;;28.70;53.80;;;;;;6191906;23;20005;-81
2022/07/04 16:56:39;;;;;;;3.28;1.20;;;28.80;52.30;;;;;;6166258;23;20004;-81
2022/07/04 16:59:04;;;;;;;4.53;1.00;;;28.80;52.90;;;;;;6167168;23;20001;-82
2022/07/04 17:01:30;;;;;;;3.42;1.23;;;28.80;52.40;;;;;;6164980;23;20001;-80
2022/07/04 17:03:56;;;;;;;2.53;1.20;;;28.90;52.70;;;;;;6165216;23;20005;-81
2022/07/04 17:06:22;;;;;;;2.80;1.02;;;28.80;52.20;;;;;;6165008;23;20009;-81
2022/07/04 17:08:48;;;;;;;2.67;1.00;;;28.80;52.30;;;;;;6163859;23;20020;-81
2022/07/04 17:11:13;;;;;;;3.25;1.10;;;28.90;52.00;;;;;;6162848;23;20009;-81
2022/07/04 17:13:43;;;;;;;2.97;0.90;;;28.90;52.00;;;;;;6191300;23;20353;-80
2022/07/04 17:16:09;;;;;;;4.35;1.60;;;28.90;52.10;;;;;;6164396;23;20005;-79
2022/07/04 17:18:34;;;;;;;2.50;1.13;;;28.90;52.00;;;;;;6166905;23;20005;-80
2022/07/04 17:21:00;;;;;;;3.80;1.50;;;28.90;52.20;;;;;;6173262;23;20001;-80
2022/07/04 17:23:26;;;;;;;3.85;1.42;;;28.90;52.20;;;;;;6183659;23;20016;-81
2022/07/04 17:25:52;;;;;;;7.82;1.92;;;28.80;52.80;;;;;;6208216;23;20021;-80
2022/07/04 17:28:18;;;;;;;2.15;0.90;;;28.70;53.00;;;;;;6168860;23;20083;-81
2022/07/04 17:30:44;;;;;;;2.20;1.17;;;28.60;52.40;;;;;;6192457;23;20005;-81
2022/07/04 17:33:11;;;;;;;4.10;1.15;;;28.60;52.40;;;;;;6191813;23;20009;-81
2022/07/04 17:35:39;;;;;;;2.80;0.98;;;28.60;52.30;;;;;;6165726;23;20001;-81
2022/07/04 17:38:05;;;;;;;5.00;1.48;;;28.50;52.60;;;;;;6192359;23;20009;-81
2022/07/04 17:40:32;;;;;;;5.18;1.42;;;28.50;52.90;;;;;;6166165;23;20080;-81
2022/07/04 17:42:58;;;;;;;4.13;2.03;;;28.60;53.00;;;;;;6190639;23;20067;-81
2022/07/04 17:45:23;;;;;;;3.55;1.58;;;28.70;53.10;;;;;;6181360;23;20015;-81
2022/07/04 17:47:49;;;;;;;6.93;1.30;;;28.70;52.60;;;;;;6174871;23;20010;-80
2022/07/04 17:50:15;;;;;;;2.70;1.17;;;28.70;53.00;;;;;;6174996;23;20005;-80
2022/07/04 17:52:41;;;;;;;3.72;1.27;;;28.70;53.70;;;;;;6174957;23;20060;-80
2022/07/04 17:55:07;;;;;;;7.15;3.08;;;28.60;54.30;;;;;;6166591;23;20001;-81
2022/07/04 17:57:33;;;;;;;3.53;1.13;;;28.40;54.10;;;;;;6164314;23;20071;-80